createdAt,value
2022-10-17T00:02:20.024Z,86966.88
2022-10-17T00:04:46.944Z,86978.38
2022-10-17T00:07:13.851Z,86976.38
2022-10-17T00:09:44.017Z,86987.09
2022-10-17T00:12:11.512Z,86990.31
2022-10-17T00:14:39.176Z,86990.06
2022-10-17T00:17:06.466Z,86988.91
2022-10-17T00:19:33.520Z,86970.41
2022-10-17T00:22:00.471Z,86991.34
2022-10-17T00:24:27.496Z,86990.13
2022-10-17T00:26:54.476Z,86983.53
2022-10-17T00:29:21.452Z,86982.31
2022-10-17T00:31:48.561Z,86989.88
2022-10-17T00:34:15.545Z,86940.34
2022-10-17T00:36:42.615Z,86941.69
2022-10-17T00:39:09.610Z,86989.38
2022-10-17T00:41:36.614Z,86986.03
2022-10-17T00:44:27.662Z,86959.28
2022-10-17T00:46:57.348Z,86986.31
2022-10-17T00:49:28.091Z,86980.50
2022-10-17T00:52:00.542Z,86992.00
2022-10-17T00:54:31.639Z,86986.22
2022-10-17T00:56:59.407Z,86957.41
2022-10-17T00:59:28.599Z,86987.84
2022-10-17T01:02:08.227Z,86978.19
2022-10-17T01:04:37.082Z,86974.41
2022-10-17T01:07:04.119Z,86994.16
2022-10-17T01:09:31.399Z,86987.38
2022-10-17T01:12:25.769Z,86984.09
2022-10-17T01:15:07.910Z,86993.63
2022-10-17T01:17:53.266Z,86978.09
2022-10-17T01:20:49.350Z,86971.66
2022-10-17T01:23:28.923Z,86989.13
2022-10-17T01:26:06.146Z,86986.31
2022-10-17T01:29:21.189Z,86987.03
2022-10-17T01:31:55.951Z,86939.84
2022-10-17T01:35:08.653Z,86984.41
2022-10-17T01:37:48.864Z,86987.19
2022-10-17T01:40:21.935Z,86984.41
2022-10-17T01:42:56.815Z,86979.66
2022-10-17T01:45:47.534Z,86980.41
2022-10-17T01:48:23.462Z,86979.00
2022-10-17T01:51:09.388Z,86933.56
2022-10-17T01:53:50.420Z,86983.97
2022-10-17T01:56:19.952Z,86964.25
2022-10-17T01:58:53.634Z,86995.81
2022-10-17T02:01:22.840Z,86996.38
2022-10-17T02:03:52.081Z,86964.06
2022-10-17T02:06:19.188Z,86966.91
2022-10-17T02:08:49.485Z,86965.66
2022-10-17T02:11:25.169Z,86997.22
2022-10-17T02:14:03.968Z,86994.78
2022-10-17T02:16:49.490Z,86988.69
2022-10-17T02:19:17.330Z,86993.38
2022-10-17T02:21:44.284Z,86999.75
2022-10-17T02:24:29.619Z,87001.22
2022-10-17T02:27:14.961Z,86959.38
2022-10-17T02:29:48.662Z,86993.53
2022-10-17T02:32:26.782Z,86995.13
2022-10-17T02:34:58.575Z,86999.09
2022-10-17T02:37:31.372Z,86995.59
2022-10-17T02:40:01.033Z,86962.78
2022-10-17T02:42:29.561Z,87001.91
2022-10-17T02:45:01.298Z,87011.44
2022-10-17T02:48:02.063Z,86987.59
2022-10-17T02:50:52.363Z,87009.94
2022-10-17T02:53:30.758Z,86993.16
2022-10-17T02:56:05.199Z,86964.00
2022-10-17T02:58:34.671Z,87011.44
2022-10-17T03:01:02.105Z,87023.06
2022-10-17T03:03:32.041Z,87025.72
2022-10-17T03:06:01.692Z,87009.19
2022-10-17T03:08:28.710Z,87008.44
2022-10-17T03:10:56.537Z,87015.53
2022-10-17T03:13:24.187Z,86981.59
2022-10-17T03:15:51.250Z,87010.25
2022-10-17T03:18:18.193Z,87011.28
2022-10-17T03:20:46.622Z,87010.34
2022-10-17T03:23:14.296Z,86982.09
2022-10-17T03:25:41.546Z,87003.06
2022-10-17T03:28:09.790Z,86990.09
2022-10-17T03:30:38.672Z,87023.78
2022-10-17T03:33:05.773Z,86972.13
2022-10-17T03:35:32.736Z,87024.03
2022-10-17T03:38:00.035Z,87016.19
2022-10-17T03:40:28.792Z,87025.22
2022-10-17T03:42:55.734Z,87016.69
2022-10-17T03:45:23.172Z,87033.06
2022-10-17T03:47:51.176Z,87033.53
2022-10-17T03:50:18.223Z,86983.00
2022-10-17T03:52:49.363Z,87029.69
2022-10-17T03:55:17.292Z,86992.69
2022-10-17T03:57:45.635Z,87023.22
2022-10-17T04:00:14.865Z,87008.88
2022-10-17T04:02:41.821Z,87043.19
2022-10-17T04:05:14.352Z,87022.69
2022-10-17T04:07:41.400Z,87030.41
2022-10-17T04:10:10.055Z,87025.63
2022-10-17T04:12:37.618Z,87011.75
2022-10-17T04:15:05.943Z,87047.88
2022-10-17T04:17:37.241Z,87052.72
2022-10-17T04:20:06.610Z,87041.38
2022-10-17T04:22:34.409Z,87047.25
2022-10-17T04:25:01.422Z,87024.03
2022-10-17T04:27:34.190Z,87048.09
2022-10-17T04:30:01.525Z,87052.03
2022-10-17T04:32:31.240Z,87049.69
2022-10-17T04:35:02.979Z,87056.19
2022-10-17T04:37:30.663Z,87059.47
2022-10-17T04:39:59.493Z,87035.59
2022-10-17T04:42:29.637Z,87060.22
2022-10-17T04:44:57.025Z,87081.41
2022-10-17T04:47:25.824Z,87055.16
2022-10-17T04:49:52.861Z,87053.81
2022-10-17T04:52:21.980Z,87063.53
2022-10-17T04:54:50.349Z,87058.75
2022-10-17T04:57:18.950Z,87056.25
2022-10-17T04:59:54.688Z,87072.13
2022-10-17T05:02:27.413Z,87044.47
2022-10-17T05:04:55.246Z,87052.97
2022-10-17T05:07:22.407Z,87070.59
2022-10-17T05:10:02.246Z,87052.16
2022-10-17T05:12:30.409Z,87070.19
2022-10-17T05:14:57.687Z,87085.72
2022-10-17T05:17:26.319Z,87068.41
2022-10-17T05:19:53.258Z,87096.69
2022-10-17T05:22:20.203Z,87054.47
2022-10-17T05:24:47.428Z,87071.97
2022-10-17T05:27:14.403Z,87065.06
2022-10-17T05:29:41.502Z,87110.00
2022-10-17T05:32:18.999Z,87075.16
2022-10-17T05:34:46.169Z,87072.19
2022-10-17T05:37:13.538Z,87113.75
2022-10-17T05:39:44.454Z,87070.94
2022-10-17T05:42:13.447Z,87118.16
2022-10-17T05:44:41.675Z,87103.75
2022-10-17T05:47:09.321Z,87120.97
2022-10-17T05:49:52.638Z,87120.19
2022-10-17T05:52:37.825Z,87140.44
2022-10-17T05:55:11.504Z,87138.84
2022-10-17T05:57:39.414Z,87131.91
2022-10-17T06:00:10.728Z,87147.56
2022-10-17T06:02:50.699Z,87127.94
2022-10-17T06:05:19.622Z,87151.31
2022-10-17T06:07:49.313Z,87133.09
2022-10-17T06:10:18.278Z,87115.16
2022-10-17T06:12:46.390Z,87152.19
2022-10-17T06:15:14.851Z,87140.00
2022-10-17T06:17:45.179Z,87142.00
2022-10-17T06:20:12.116Z,87158.25
2022-10-17T06:22:39.219Z,87167.59
2022-10-17T06:25:12.061Z,87154.16
2022-10-17T06:27:39.124Z,87160.78
2022-10-17T06:30:06.800Z,87162.44
2022-10-17T06:32:33.802Z,87177.06
2022-10-17T06:35:00.685Z,87178.34
2022-10-17T06:37:35.590Z,87177.72
2022-10-17T06:40:09.153Z,87166.75
2022-10-17T06:42:37.533Z,87172.63
2022-10-17T06:45:24.817Z,87146.25
2022-10-17T06:48:09.871Z,87159.59
2022-10-17T06:51:10.297Z,87181.81
2022-10-17T06:53:47.337Z,87144.91
2022-10-17T06:56:33.181Z,87171.97
2022-10-17T06:59:29.390Z,87159.84
2022-10-17T07:02:25.279Z,87149.59
2022-10-17T07:04:53.594Z,87164.25
2022-10-17T07:07:20.560Z,87184.84
2022-10-17T07:09:47.734Z,87184.31
2022-10-17T07:12:16.182Z,87185.16
2022-10-17T07:14:47.332Z,87157.41
2022-10-17T07:17:14.383Z,87197.28
2022-10-17T07:19:43.568Z,87157.94
2022-10-17T07:22:11.352Z,87191.50
2022-10-17T07:24:41.325Z,87184.66
2022-10-17T07:27:20.023Z,87198.72
2022-10-17T07:29:47.806Z,87196.88
2022-10-17T07:32:19.679Z,87199.75
2022-10-17T07:34:46.725Z,87204.69
2022-10-17T07:37:14.038Z,87189.56
2022-10-17T07:39:46.728Z,87204.31
2022-10-17T07:42:14.718Z,87199.63
2022-10-17T07:44:41.878Z,87194.25
2022-10-17T07:47:10.022Z,87195.81
2022-10-17T07:49:42.798Z,87200.13
2022-10-17T07:52:13.882Z,87162.66
2022-10-17T07:54:40.842Z,87169.75
2022-10-17T07:57:08.172Z,87172.66
2022-10-17T07:59:36.994Z,87194.38
2022-10-17T08:02:05.027Z,87189.53
2022-10-17T08:04:31.903Z,87195.28
2022-10-17T08:07:18.413Z,87152.16
2022-10-17T08:09:47.452Z,87183.00
2022-10-17T08:12:15.377Z,87164.31
2022-10-17T08:14:43.447Z,87169.94
2022-10-17T08:17:10.677Z,87195.78
2022-10-17T08:19:40.915Z,87129.06
2022-10-17T08:22:08.694Z,87134.03
2022-10-17T08:24:35.843Z,87147.34
2022-10-17T08:27:04.089Z,87189.19
2022-10-17T08:29:32.937Z,87192.00
2022-10-17T08:32:01.375Z,87192.09
2022-10-17T08:34:29.395Z,87187.28
2022-10-17T08:36:56.432Z,87188.03
2022-10-17T08:39:23.323Z,87183.19
2022-10-17T08:41:53.229Z,87190.91
2022-10-17T08:44:45.201Z,87177.03
2022-10-17T08:47:19.879Z,87178.44
2022-10-17T08:49:57.412Z,87161.75
2022-10-17T08:52:39.054Z,87193.06
2022-10-17T08:55:34.932Z,87198.63
2022-10-17T08:58:01.949Z,87200.75
2022-10-17T09:00:31.239Z,87179.22
2022-10-17T09:03:23.629Z,87195.22
2022-10-17T09:06:30.055Z,87192.44
2022-10-17T09:09:01.885Z,87180.63
2022-10-17T09:11:52.402Z,87192.44
2022-10-17T09:14:33.753Z,87200.78
2022-10-17T09:17:21.839Z,87189.69
2022-10-17T09:20:01.081Z,87193.84
2022-10-17T09:22:33.556Z,87159.06
2022-10-17T09:25:10.186Z,87177.16
2022-10-17T09:27:43.360Z,87200.78
2022-10-17T09:30:46.363Z,87191.00
2022-10-17T09:33:34.845Z,87198.63
2022-10-17T09:36:15.088Z,87188.19
2022-10-17T09:38:51.522Z,87193.03
2022-10-17T09:44:55.175Z,87177.63
2022-10-17T09:47:46.638Z,87196.34
2022-10-17T09:50:35.884Z,87190.75
2022-10-17T09:53:18.761Z,87148.38
2022-10-17T09:55:48.884Z,87187.94
2022-10-17T09:58:15.974Z,87186.50
2022-10-17T10:00:48.463Z,87187.84
2022-10-17T10:03:24.068Z,87173.91
2022-10-17T10:06:08.102Z,87157.88
2022-10-17T10:08:58.862Z,87178.00
2022-10-17T10:11:45.087Z,87173.06
2022-10-17T10:14:21.452Z,87183.44
2022-10-17T10:16:50.113Z,87142.41
2022-10-17T10:19:50.448Z,87161.78
2022-10-17T10:22:19.932Z,87179.78
2022-10-17T10:25:06.598Z,87152.59
2022-10-17T10:27:33.941Z,87083.22
2022-10-17T10:30:01.524Z,87146.94
2022-10-17T10:32:35.533Z,87159.41
2022-10-17T10:35:39.130Z,87176.66
2022-10-17T10:38:14.354Z,87182.16
2022-10-17T10:40:54.500Z,87167.50
2022-10-17T10:43:27.139Z,87167.50
2022-10-17T10:45:54.397Z,87177.19
2022-10-17T10:48:30.776Z,87167.41
2022-10-17T10:51:05.679Z,87138.88
2022-10-17T10:53:35.189Z,87172.75
2022-10-17T10:56:11.409Z,87167.16
2022-10-17T10:59:01.579Z,87140.72
2022-10-17T11:01:34.517Z,87168.44
2022-10-17T11:04:22.063Z,87139.91
2022-10-17T11:06:52.541Z,87173.78
2022-10-17T11:09:37.554Z,87175.16
2022-10-17T11:12:12.924Z,87162.66
2022-10-17T11:14:46.017Z,87169.53
2022-10-17T11:17:34.813Z,87169.38
2022-10-17T11:20:18.394Z,87170.66
2022-10-17T11:22:52.400Z,87173.31
2022-10-17T11:25:33.248Z,87154.59
2022-10-17T11:28:04.850Z,87160.78
2022-10-17T11:30:46.864Z,87137.13
2022-10-17T11:33:24.876Z,87148.16
2022-10-17T11:35:56.317Z,87161.91
2022-10-17T11:38:50.128Z,87130.03
2022-10-17T11:41:32.130Z,87154.84
2022-10-17T11:44:15.612Z,87149.25
2022-10-17T11:46:44.832Z,87156.16
2022-10-17T11:49:38.242Z,87147.75
2022-10-17T11:52:51.225Z,87126.44
2022-10-17T11:55:18.941Z,87154.78
2022-10-17T11:57:56.481Z,87160.34
2022-10-17T12:01:01.146Z,87152.47
2022-10-17T12:03:45.284Z,87142.09
2022-10-17T12:06:18.314Z,87153.81
2022-10-17T12:09:01.712Z,87122.03
2022-10-17T12:11:37.365Z,87158.72
2022-10-17T12:14:42.925Z,87149.56
2022-10-17T12:17:39.440Z,87119.81
2022-10-17T12:20:24.983Z,87150.25
2022-10-17T12:22:55.140Z,87135.16
2022-10-17T12:25:34.759Z,87143.44
2022-10-17T12:28:19.958Z,87163.03
2022-10-17T12:31:10.325Z,87153.91
2022-10-17T12:33:46.071Z,87153.22
2022-10-17T12:36:19.072Z,87161.63
2022-10-17T12:38:50.026Z,87122.22
2022-10-17T12:41:37.831Z,87157.47
2022-10-17T12:44:14.347Z,87165.81
2022-10-17T12:46:49.285Z,87164.28
2022-10-17T12:49:37.341Z,87161.41
2022-10-17T12:52:46.809Z,87153.75
2022-10-17T12:55:34.334Z,87173.88
2022-10-17T12:58:12.587Z,87169.69
2022-10-17T13:01:11.783Z,87141.84
2022-10-17T13:03:44.793Z,87145.44
2022-10-17T13:06:18.820Z,87148.84
2022-10-17T13:08:54.522Z,87180.72
2022-10-17T13:11:25.748Z,87180.59
2022-10-17T13:13:57.373Z,87187.47
2022-10-17T13:16:32.286Z,87172.16
2022-10-17T13:18:59.755Z,87172.03
2022-10-17T13:21:27.519Z,87182.53
2022-10-17T13:23:55.176Z,87188.13
2022-10-17T13:26:28.502Z,87186.72
2022-10-17T13:29:06.891Z,87172.09
2022-10-17T13:31:36.758Z,87147.13
2022-10-17T13:34:06.823Z,87141.56
2022-10-17T13:36:35.300Z,87180.28
2022-10-17T13:39:12.322Z,87169.34
2022-10-17T13:41:41.403Z,87144.41
2022-10-17T13:44:17.235Z,87186.56
2022-10-17T13:46:45.093Z,87190.94
2022-10-17T13:49:18.197Z,87193.03
2022-10-17T13:51:48.132Z,87193.84
2022-10-17T13:54:37.898Z,87168.31
2022-10-17T13:57:06.203Z,87189.78
2022-10-17T13:59:41.317Z,87180.41
2022-10-17T14:02:26.930Z,87188.13
2022-10-17T14:05:20.242Z,87189.75
2022-10-17T14:10:43.477Z,87192.38
2022-10-17T14:13:23.571Z,87191.13
2022-10-17T14:15:52.249Z,87193.34
2022-10-17T14:18:25.941Z,87165.75
2022-10-17T14:23:44.551Z,87198.59
2022-10-17T14:26:19.848Z,87171.59
2022-10-17T14:29:03.431Z,87131.50
2022-10-17T14:31:34.016Z,87189.75
2022-10-17T14:34:03.324Z,87210.88
2022-10-17T14:36:37.832Z,87202.56
2022-10-17T14:39:13.367Z,87213.13
2022-10-17T14:41:44.763Z,87212.66
2022-10-17T14:44:32.876Z,87218.25
2022-10-17T14:47:30.429Z,87225.34
2022-10-17T14:50:05.981Z,87225.47
2022-10-17T14:52:33.819Z,87227.69
2022-10-17T14:55:33.424Z,87209.03
2022-10-17T14:58:00.430Z,87227.19
2022-10-17T15:00:27.955Z,87219.56
2022-10-17T15:02:56.323Z,87214.69
2022-10-17T15:05:24.132Z,87226.50
2022-10-17T15:07:51.654Z,87186.88
2022-10-17T15:10:34.074Z,87227.22
2022-10-17T15:13:26.561Z,87231.34
2022-10-17T15:15:52.165Z,87229.94
2022-10-17T15:18:19.960Z,87228.50
2022-10-17T15:20:46.970Z,87243.84
2022-10-17T15:23:13.908Z,87232.03
2022-10-17T15:25:40.925Z,87226.44
2022-10-17T15:28:09.192Z,87241.59
2022-10-17T15:30:36.819Z,87247.75
2022-10-17T15:33:06.612Z,87240.19
2022-10-17T15:35:33.659Z,87246.47
2022-10-17T15:38:00.615Z,87240.91
2022-10-17T15:40:29.862Z,87205.41
2022-10-17T15:42:57.558Z,87251.13
2022-10-17T15:45:24.594Z,87246.28
2022-10-17T15:47:57.286Z,87249.06
2022-10-17T15:50:24.274Z,87253.25
2022-10-17T15:52:51.318Z,87230.94
2022-10-17T15:55:18.893Z,87254.66
2022-10-17T15:57:47.680Z,87253.13
2022-10-17T16:00:23.700Z,87255.22
2022-10-17T16:02:51.385Z,87262.16
2022-10-17T16:05:23.568Z,87254.38
2022-10-17T16:07:50.955Z,87229.28
2022-10-17T16:10:18.254Z,87247.06
2022-10-17T16:12:46.550Z,87267.41
2022-10-17T16:15:25.460Z,87255.53
2022-10-17T16:17:53.479Z,87238.72
2022-10-17T16:20:21.749Z,87290.19
2022-10-17T16:22:49.584Z,87286.03
2022-10-17T16:25:26.395Z,87287.38
2022-10-17T16:27:55.458Z,87289.41
2022-10-17T16:30:24.460Z,87293.56
2022-10-17T16:32:52.282Z,87264.25
2022-10-17T16:35:25.674Z,87295.59
2022-10-17T16:37:52.615Z,87271.81
2022-10-17T16:40:19.985Z,87286.69
2022-10-17T16:42:46.941Z,87281.44
2022-10-17T16:45:22.284Z,87297.66
2022-10-17T16:47:49.838Z,87247.69
2022-10-17T16:50:16.842Z,87304.69
2022-10-17T16:52:43.836Z,87300.50
2022-10-17T16:55:11.190Z,87298.41
2022-10-17T16:57:38.261Z,87294.88
2022-10-17T17:00:07.362Z,87273.97
2022-10-17T17:02:34.586Z,87304.53
2022-10-17T17:05:01.730Z,87295.69
2022-10-17T17:07:29.899Z,87316.44
2022-10-17T17:09:57.083Z,87319.31
2022-10-17T17:12:24.039Z,87282.59
2022-10-17T17:14:50.992Z,87313.16
2022-10-17T17:17:30.407Z,87311.94
2022-10-17T17:20:06.675Z,87286.75
2022-10-17T17:22:33.661Z,87299.47
2022-10-17T17:25:00.622Z,87312.75
2022-10-17T17:27:29.275Z,87310.50
2022-10-17T17:29:56.353Z,87274.38
2022-10-17T17:32:23.372Z,87304.44
2022-10-17T17:34:50.400Z,87303.13
2022-10-17T17:37:17.267Z,87314.84
2022-10-17T17:39:44.382Z,87291.47
2022-10-17T17:42:11.274Z,87298.66
2022-10-17T17:44:38.200Z,87308.50
2022-10-17T17:47:05.480Z,87303.03
2022-10-17T17:49:32.540Z,87299.69
2022-10-17T17:51:59.970Z,87300.53
2022-10-17T17:54:27.460Z,87310.66
2022-10-17T17:56:54.380Z,87314.94
2022-10-17T17:59:21.243Z,87325.16
2022-10-17T18:01:48.343Z,87300.78
2022-10-17T18:04:16.605Z,87310.97
2022-10-17T18:06:43.657Z,87314.72
2022-10-17T18:09:10.831Z,87296.63
2022-10-17T18:11:38.219Z,87307.19
2022-10-17T18:14:07.995Z,87301.34
2022-10-17T18:16:36.478Z,87289.00
2022-10-17T18:19:09.781Z,87291.19
2022-10-17T18:21:37.577Z,87320.47
2022-10-17T18:24:05.188Z,87247.88
2022-10-17T18:26:33.129Z,87287.69
2022-10-17T18:29:00.201Z,87301.84
2022-10-17T18:31:36.020Z,87323.56
2022-10-17T18:34:04.270Z,87318.81
2022-10-17T18:36:33.839Z,87290.81
2022-10-17T18:39:01.522Z,87301.38
2022-10-17T18:41:29.114Z,87320.25
2022-10-17T18:43:57.058Z,87323.66
2022-10-17T18:46:32.594Z,87321.00
2022-10-17T18:48:59.562Z,87325.63
2022-10-17T18:51:27.249Z,87303.09
2022-10-17T18:53:56.375Z,87326.94
2022-10-17T18:56:24.495Z,87324.19
2022-10-17T18:58:52.152Z,87303.81
2022-10-17T19:01:22.081Z,87330.31
2022-10-17T19:03:51.965Z,87320.72
2022-10-17T19:06:21.642Z,87314.84
2022-10-17T19:08:49.045Z,87329.19
2022-10-17T19:11:24.899Z,87331.25
2022-10-17T19:13:52.775Z,87290.97
2022-10-17T19:16:26.689Z,87333.47
2022-10-17T19:18:58.822Z,87318.91
2022-10-17T19:21:26.685Z,87323.09
2022-10-17T19:23:56.443Z,87330.16
2022-10-17T19:26:23.972Z,87281.34
2022-10-17T19:28:55.187Z,87276.94
2022-10-17T19:31:26.947Z,87323.69
2022-10-17T19:33:55.793Z,87322.84
2022-10-17T19:36:28.824Z,87311.56
2022-10-17T19:38:59.909Z,87297.97
2022-10-17T19:41:27.390Z,87332.41
2022-10-17T19:43:54.526Z,87328.59
2022-10-17T19:46:23.396Z,87302.34
2022-10-17T19:48:51.043Z,87331.38
2022-10-17T19:51:19.835Z,87292.81
2022-10-17T19:53:47.654Z,87301.25
2022-10-17T19:56:18.596Z,87303.41
2022-10-17T19:58:46.730Z,87336.84
2022-10-17T20:01:22.171Z,87318.69
2022-10-17T20:03:49.857Z,87319.59
2022-10-17T20:06:17.483Z,87327.97
2022-10-17T20:08:44.991Z,87333.00
2022-10-17T20:11:15.021Z,87331.53
2022-10-17T20:13:42.011Z,87265.81
2022-10-17T20:16:12.657Z,87327.41
2022-10-17T20:18:41.027Z,87311.38
2022-10-17T20:21:13.884Z,87317.00
2022-10-17T20:23:41.862Z,87321.97
2022-10-17T20:26:25.915Z,87311.03
2022-10-17T20:29:08.466Z,87299.38
2022-10-17T20:31:35.651Z,87300.88
2022-10-17T20:34:03.620Z,87312.22
2022-10-17T20:36:30.890Z,87316.38
2022-10-17T20:38:59.134Z,87312.34
2022-10-17T20:41:26.969Z,87308.13
2022-10-17T20:43:55.475Z,87315.75
2022-10-17T20:46:36.452Z,87306.78
2022-10-17T20:49:06.566Z,87303.97
2022-10-17T20:51:34.798Z,87281.72
2022-10-17T20:54:03.011Z,87306.88
2022-10-17T20:56:32.137Z,87301.16
2022-10-17T20:59:07.529Z,87284.28
2022-10-17T21:01:35.886Z,87305.34
2022-10-17T21:04:26.877Z,87288.59
2022-10-17T21:06:52.246Z,87312.34
2022-10-17T21:09:19.806Z,87308.84
2022-10-17T21:11:46.951Z,87294.72
2022-10-17T21:14:16.809Z,87275.97
2022-10-17T21:16:44.101Z,87259.91
2022-10-17T21:19:12.294Z,87298.50
2022-10-17T21:21:42.549Z,87286.47
2022-10-17T21:24:14.823Z,87294.72
2022-10-17T21:26:43.174Z,87275.09
2022-10-17T21:29:11.814Z,87298.41
2022-10-17T21:31:41.663Z,87291.25
2022-10-17T21:34:24.656Z,87300.13
2022-10-17T21:36:52.343Z,87298.28
2022-10-17T21:39:19.441Z,87297.03
2022-10-17T21:41:46.545Z,87293.69
2022-10-17T21:44:16.084Z,87288.59
2022-10-17T21:46:43.608Z,87289.31
2022-10-17T21:49:16.173Z,87290.03
2022-10-17T21:51:44.248Z,87287.25
2022-10-17T21:54:11.245Z,87285.16
2022-10-17T21:56:38.148Z,87279.69
2022-10-17T21:59:06.117Z,87251.25
2022-10-17T22:01:39.057Z,87265.94
2022-10-17T22:04:08.583Z,87284.28
2022-10-17T22:06:40.271Z,87290.09
2022-10-17T22:09:25.705Z,87267.94
2022-10-17T22:11:56.521Z,87280.56
2022-10-17T22:14:27.177Z,87278.03
2022-10-17T22:16:54.948Z,87257.91
2022-10-17T22:19:24.972Z,87271.94
2022-10-17T22:21:52.394Z,87278.53
2022-10-17T22:26:48.593Z,87262.88
2022-10-17T22:29:16.328Z,87249.44
2022-10-17T22:31:43.656Z,87255.78
2022-10-17T22:34:13.812Z,87237.25
2022-10-17T22:36:41.099Z,87264.34
2022-10-17T22:39:08.206Z,87264.38
2022-10-17T22:41:35.281Z,87274.03
2022-10-17T22:44:02.613Z,87247.75
2022-10-17T22:46:30.114Z,87259.03
2022-10-17T22:48:57.083Z,87256.78
2022-10-17T22:53:50.828Z,87270.09
2022-10-17T22:56:20.235Z,87268.91
2022-10-17T22:58:47.514Z,87260.16
2022-10-17T23:01:17.996Z,87253.16
2022-10-17T23:03:45.380Z,87266.81
2022-10-17T23:06:12.677Z,87272.97
2022-10-17T23:08:40.107Z,87243.00
2022-10-17T23:11:07.848Z,87264.09
2022-10-17T23:13:35.240Z,87250.88
2022-10-17T23:16:02.695Z,87261.28
2022-10-17T23:20:57.930Z,87258.56
2022-10-17T23:23:25.127Z,87250.91
2022-10-17T23:25:52.199Z,87225.16
2022-10-17T23:28:19.224Z,87215.22
2022-10-17T23:30:46.647Z,87217.84
2022-10-17T23:33:14.361Z,87249.75
2022-10-17T23:35:41.842Z,87219.63
2022-10-17T23:38:09.334Z,87226.09
2022-10-17T23:40:36.519Z,87243.78
2022-10-17T23:43:04.689Z,87253.28
2022-10-17T23:45:34.792Z,87246.44
2022-10-17T23:48:05.223Z,87228.81
2022-10-17T23:50:32.277Z,87221.81
2022-10-17T23:52:59.220Z,87209.59
2022-10-17T23:55:26.189Z,87193.94
2022-10-17T23:57:53.337Z,87197.72
